sensor_id;sensor_type;location;lat;lon;timestamp;temperature;humidity
41876;DHT22;27555;50.808;4.402;2023-04-25T00:01:04;10.00;99.90
41876;DHT22;27555;50.808;4.402;2023-04-25T00:03:31;9.90;99.90
41876;DHT22;27555;50.808;4.402;2023-04-25T00:05:58;10.00;99.90
41876;DHT22;27555;50.808;4.402;2023-04-25T00:08:27;10.00;99.90
41876;DHT22;27555;50.808;4.402;2023-04-25T00:10:53;10.20;99.70
41876;DHT22;27555;50.808;4.402;2023-04-25T00:13:19;10.10;99.60
41876;DHT22;27555;50.808;4.402;2023-04-25T00:15:45;10.30;99.60
41876;DHT22;27555;50.808;4.402;2023-04-25T00:18:11;10.20;99.60
41876;DHT22;27555;50.808;4.402;2023-04-25T00:20:37;9.90;99.90
41876;DHT22;27555;50.808;4.402;2023-04-25T00:23:04;9.70;99.90
41876;DHT22;27555;50.808;4.402;2023-04-25T00:25:30;9.50;99.90
41876;DHT22;27555;50.808;4.402;2023-04-25T00:27:55;9.60;99.90
41876;DHT22;27555;50.808;4.402;2023-04-25T00:30:21;9.80;99.90
41876;DHT22;27555;50.808;4.402;2023-04-25T00:32:47;9.80;99.90
41876;DHT22;27555;50.808;4.402;2023-04-25T00:35:12;9.70;99.90
41876;DHT22;27555;50.808;4.402;2023-04-25T00:37:38;9.50;99.90
41876;DHT22;27555;50.808;4.402;2023-04-25T00:40:05;9.40;99.90
41876;DHT22;27555;50.808;4.402;2023-04-25T00:42:31;9.40;99.90
41876;DHT22;27555;50.808;4.402;2023-04-25T00:44:58;9.40;99.90
41876;DHT22;27555;50.808;4.402;2023-04-25T00:47:25;9.40;99.90
41876;DHT22;27555;50.808;4.402;2023-04-25T00:49:50;9.40;99.90
41876;DHT22;27555;50.808;4.402;2023-04-25T00:52:16;9.30;99.90
41876;DHT22;27555;50.808;4.402;2023-04-25T00:54:42;9.20;99.90
41876;DHT22;27555;50.808;4.402;2023-04-25T00:57:08;9.30;99.90
41876;DHT22;27555;50.808;4.402;2023-04-25T00:59:34;9.40;99.90
41876;DHT22;27555;50.808;4.402;2023-04-25T01:02:01;9.50;99.90
41876;DHT22;27555;50.808;4.402;2023-04-25T01:04:29;9.90;99.90
41876;DHT22;27555;50.808;4.402;2023-04-25T01:06:55;10.20;99.90
41876;DHT22;27555;50.808;4.402;2023-04-25T01:09:22;10.20;99.90
41876;DHT22;27555;50.808;4.402;2023-04-25T01:11:48;10.30;99.90
41876;DHT22;27555;50.808;4.402;2023-04-25T01:14:14;10.40;99.90
41876;DHT22;27555;50.808;4.402;2023-04-25T01:16:40;10.20;99.90
41876;DHT22;27555;50.808;4.402;2023-04-25T01:19:10;9.90;99.90
41876;DHT22;27555;50.808;4.402;2023-04-25T01:21:39;9.90;99.90
41876;DHT22;27555;50.808;4.402;2023-04-25T01:24:05;9.80;99.90
41876;DHT22;27555;50.808;4.402;2023-04-25T01:26:31;9.80;99.90
41876;DHT22;27555;50.808;4.402;2023-04-25T01:28:58;9.90;99.90
41876;DHT22;27555;50.808;4.402;2023-04-25T01:31:24;10.10;99.90
41876;DHT22;27555;50.808;4.402;2023-04-25T01:33:49;10.30;99.90
41876;DHT22;27555;50.808;4.402;2023-04-25T01:36:15;10.20;99.90
41876;DHT22;27555;50.808;4.402;2023-04-25T01:38:41;10.00;99.90
41876;DHT22;27555;50.808;4.402;2023-04-25T01:41:07;10.10;99.90
41876;DHT22;27555;50.808;4.402;2023-04-25T01:43:33;10.20;99.90
41876;DHT22;27555;50.808;4.402;2023-04-25T01:45:59;10.30;99.90
41876;DHT22;27555;50.808;4.402;2023-04-25T01:48:24;10.30;99.90
41876;DHT22;27555;50.808;4.402;2023-04-25T01:50:50;10.10;99.90
41876;DHT22;27555;50.808;4.402;2023-04-25T01:53:16;9.90;99.90
41876;DHT22;27555;50.808;4.402;2023-04-25T01:55:42;9.70;99.90
41876;DHT22;27555;50.808;4.402;2023-04-25T01:58:08;9.80;99.90
41876;DHT22;27555;50.808;4.402;2023-04-25T02:00:35;9.80;99.90
41876;DHT22;27555;50.808;4.402;2023-04-25T02:03:03;9.60;99.90
41876;DHT22;27555;50.808;4.402;2023-04-25T02:05:34;9.30;99.90
41876;DHT22;27555;50.808;4.402;2023-04-25T02:08:00;9.30;99.90
41876;DHT22;27555;50.808;4.402;2023-04-25T02:10:26;9.30;99.90
41876;DHT22;27555;50.808;4.402;2023-04-25T02:12:51;9.30;99.90
41876;DHT22;27555;50.808;4.402;2023-04-25T02:15:17;9.00;99.90
41876;DHT22;27555;50.808;4.402;2023-04-25T02:17:42;9.00;99.90
41876;DHT22;27555;50.808;4.402;2023-04-25T02:20:10;8.80;99.90
41876;DHT22;27555;50.808;4.402;2023-04-25T02:22:36;8.90;99.90
41876;DHT22;27555;50.808;4.402;2023-04-25T02:25:02;8.90;99.90
41876;DHT22;27555;50.808;4.402;2023-04-25T02:27:30;8.80;99.90
41876;DHT22;27555;50.808;4.402;2023-04-25T02:29:56;8.80;99.90
41876;DHT22;27555;50.808;4.402;2023-04-25T02:32:21;8.90;99.90
41876;DHT22;27555;50.808;4.402;2023-04-25T02:34:47;8.90;99.90
41876;DHT22;27555;50.808;4.402;2023-04-25T02:37:13;9.00;99.90
41876;DHT22;27555;50.808;4.402;2023-04-25T02:39:39;8.90;99.90
41876;DHT22;27555;50.808;4.402;2023-04-25T02:42:05;9.00;99.90
41876;DHT22;27555;50.808;4.402;2023-04-25T02:44:30;9.10;99.90
41876;DHT22;27555;50.808;4.402;2023-04-25T02:46:56;9.10;99.90
41876;DHT22;27555;50.808;4.402;2023-04-25T02:49:21;9.20;99.90
41876;DHT22;27555;50.808;4.402;2023-04-25T02:51:47;9.40;99.90
41876;DHT22;27555;50.808;4.402;2023-04-25T02:54:13;9.30;99.90
41876;DHT22;27555;50.808;4.402;2023-04-25T02:56:38;9.40;99.90
41876;DHT22;27555;50.808;4.402;2023-04-25T02:59:04;9.60;99.90
41876;DHT22;27555;50.808;4.402;2023-04-25T03:01:29;9.70;99.90
41876;DHT22;27555;50.808;4.402;2023-04-25T03:03:55;10.00;99.90
41876;DHT22;27555;50.808;4.402;2023-04-25T03:06:21;10.10;99.90
41876;DHT22;27555;50.808;4.402;2023-04-25T03:08:46;10.00;99.90
41876;DHT22;27555;50.808;4.402;2023-04-25T03:11:12;9.90;99.90
41876;DHT22;27555;50.808;4.402;2023-04-25T03:13:37;9.90;99.90
41876;DHT22;27555;50.808;4.402;2023-04-25T03:16:03;10.00;99.90
41876;DHT22;27555;50.808;4.402;2023-04-25T03:18:29;9.90;99.90
41876;DHT22;27555;50.808;4.402;2023-04-25T03:20:55;9.80;99.90
41876;DHT22;27555;50.808;4.402;2023-04-25T03:23:20;9.80;99.90
41876;DHT22;27555;50.808;4.402;2023-04-25T03:25:46;9.90;99.90
41876;DHT22;27555;50.808;4.402;2023-04-25T03:28:12;10.10;99.90
41876;DHT22;27555;50.808;4.402;2023-04-25T03:30:37;10.30;99.90
41876;DHT22;27555;50.808;4.402;2023-04-25T03:33:03;10.30;99.90
41876;DHT22;27555;50.808;4.402;2023-04-25T03:35:28;10.30;99.90
41876;DHT22;27555;50.808;4.402;2023-04-25T03:37:54;10.20;99.90
41876;DHT22;27555;50.808;4.402;2023-04-25T03:40:20;9.80;99.90
41876;DHT22;27555;50.808;4.402;2023-04-25T03:42:45;9.80;99.90
41876;DHT22;27555;50.808;4.402;2023-04-25T03:45:11;9.60;99.90
41876;DHT22;27555;50.808;4.402;2023-04-25T03:47:37;9.50;99.90
41876;DHT22;27555;50.808;4.402;2023-04-25T03:50:02;9.30;99.90
41876;DHT22;27555;50.808;4.402;2023-04-25T03:52:28;8.80;99.90
41876;DHT22;27555;50.808;4.402;2023-04-25T03:54:53;8.70;99.90
41876;DHT22;27555;50.808;4.402;2023-04-25T03:57:19;8.50;99.90
41876;DHT22;27555;50.808;4.402;2023-04-25T03:59:45;8.20;99.90
41876;DHT22;27555;50.808;4.402;2023-04-25T04:02:10;8.20;99.90
41876;DHT22;27555;50.808;4.402;2023-04-25T04:04:36;8.30;99.90
41876;DHT22;27555;50.808;4.402;2023-04-25T04:07:02;8.40;99.90
41876;DHT22;27555;50.808;4.402;2023-04-25T04:09:28;8.40;99.90
41876;DHT22;27555;50.808;4.402;2023-04-25T04:11:54;8.30;99.90
41876;DHT22;27555;50.808;4.402;2023-04-25T04:14:19;8.50;99.90
41876;DHT22;27555;50.808;4.402;2023-04-25T04:16:45;8.90;99.90
41876;DHT22;27555;50.808;4.402;2023-04-25T04:19:11;9.00;99.90
41876;DHT22;27555;50.808;4.402;2023-04-25T04:21:36;8.90;99.90
41876;DHT22;27555;50.808;4.402;2023-04-25T04:24:02;8.70;99.90
41876;DHT22;27555;50.808;4.402;2023-04-25T04:26:28;8.60;99.90
41876;DHT22;27555;50.808;4.402;2023-04-25T04:28:54;8.70;99.90
41876;DHT22;27555;50.808;4.402;2023-04-25T04:31:21;8.80;99.90
41876;DHT22;27555;50.808;4.402;2023-04-25T04:33:47;8.80;99.90
41876;DHT22;27555;50.808;4.402;2023-04-25T04:36:13;8.90;99.90
41876;DHT22;27555;50.808;4.402;2023-04-25T04:38:39;9.00;99.90
41876;DHT22;27555;50.808;4.402;2023-04-25T04:41:05;9.20;99.90
41876;DHT22;27555;50.808;4.402;2023-04-25T04:43:31;9.40;99.90
41876;DHT22;27555;50.808;4.402;2023-04-25T04:46:00;9.60;99.90
41876;DHT22;27555;50.808;4.402;2023-04-25T04:48:25;9.60;99.90
41876;DHT22;27555;50.808;4.402;2023-04-25T04:50:51;9.60;99.90
41876;DHT22;27555;50.808;4.402;2023-04-25T04:53:17;9.70;99.90
41876;DHT22;27555;50.808;4.402;2023-04-25T04:55:42;9.70;99.90
41876;DHT22;27555;50.808;4.402;2023-04-25T04:58:08;9.60;99.90
41876;DHT22;27555;50.808;4.402;2023-04-25T05:00:34;9.60;99.90
41876;DHT22;27555;50.808;4.402;2023-04-25T05:03:00;9.60;99.90
41876;DHT22;27555;50.808;4.402;2023-04-25T05:05:26;9.80;99.90
41876;DHT22;27555;50.808;4.402;2023-04-25T05:07:51;9.90;99.90
41876;DHT22;27555;50.808;4.402;2023-04-25T05:10:18;10.00;99.90
41876;DHT22;27555;50.808;4.402;2023-04-25T05:12:44;9.80;99.90
41876;DHT22;27555;50.808;4.402;2023-04-25T05:15:10;9.20;99.90
41876;DHT22;27555;50.808;4.402;2023-04-25T05:17:35;9.00;99.90
41876;DHT22;27555;50.808;4.402;2023-04-25T05:20:01;8.80;99.90
41876;DHT22;27555;50.808;4.402;2023-04-25T05:22:27;9.00;99.90
41876;DHT22;27555;50.808;4.402;2023-04-25T05:24:53;9.00;99.90
41876;DHT22;27555;50.808;4.402;2023-04-25T05:27:19;9.20;99.90
41876;DHT22;27555;50.808;4.402;2023-04-25T05:29:44;8.70;99.90
41876;DHT22;27555;50.808;4.402;2023-04-25T05:32:10;8.40;99.90
41876;DHT22;27555;50.808;4.402;2023-04-25T05:34:36;8.20;99.90
41876;DHT22;27555;50.808;4.402;2023-04-25T05:37:02;8.10;99.90
41876;DHT22;27555;50.808;4.402;2023-04-25T05:39:28;8.10;99.90
41876;DHT22;27555;50.808;4.402;2023-04-25T05:41:54;8.00;99.90
41876;DHT22;27555;50.808;4.402;2023-04-25T05:44:20;8.00;99.90
41876;DHT22;27555;50.808;4.402;2023-04-25T05:46:46;8.10;99.90
41876;DHT22;27555;50.808;4.402;2023-04-25T05:49:12;8.60;99.90
41876;DHT22;27555;50.808;4.402;2023-04-25T05:51:38;8.50;99.90
41876;DHT22;27555;50.808;4.402;2023-04-25T05:54:03;8.20;99.90
41876;DHT22;27555;50.808;4.402;2023-04-25T05:56:29;8.30;99.90
41876;DHT22;27555;50.808;4.402;2023-04-25T05:58:55;8.70;99.90
41876;DHT22;27555;50.808;4.402;2023-04-25T06:01:22;8.80;99.90
41876;DHT22;27555;50.808;4.402;2023-04-25T06:03:48;8.90;99.90
41876;DHT22;27555;50.808;4.402;2023-04-25T06:06:14;9.00;99.90
41876;DHT22;27555;50.808;4.402;2023-04-25T06:08:40;9.20;99.90
41876;DHT22;27555;50.808;4.402;2023-04-25T06:11:06;9.50;99.90
41876;DHT22;27555;50.808;4.402;2023-04-25T06:13:32;9.60;99.90
41876;DHT22;27555;50.808;4.402;2023-04-25T06:15:57;9.60;99.90
41876;DHT22;27555;50.808;4.402;2023-04-25T06:18:23;9.60;99.90
41876;DHT22;27555;50.808;4.402;2023-04-25T06:20:48;9.70;99.90
41876;DHT22;27555;50.808;4.402;2023-04-25T06:23:14;9.80;99.90
41876;DHT22;27555;50.808;4.402;2023-04-25T06:25:39;9.80;99.90
41876;DHT22;27555;50.808;4.402;2023-04-25T06:28:05;9.50;99.90
41876;DHT22;27555;50.808;4.402;2023-04-25T06:30:31;9.30;99.90
41876;DHT22;27555;50.808;4.402;2023-04-25T06:32:56;9.10;99.90
41876;DHT22;27555;50.808;4.402;2023-04-25T06:35:22;9.00;99.90
41876;DHT22;27555;50.808;4.402;2023-04-25T06:37:47;9.10;99.90
41876;DHT22;27555;50.808;4.402;2023-04-25T06:40:13;9.30;99.90
41876;DHT22;27555;50.808;4.402;2023-04-25T06:42:39;9.50;99.90
41876;DHT22;27555;50.808;4.402;2023-04-25T06:45:05;9.80;99.90
41876;DHT22;27555;50.808;4.402;2023-04-25T06:47:30;10.10;99.90
41876;DHT22;27555;50.808;4.402;2023-04-25T06:49:56;10.30;99.90
41876;DHT22;27555;50.808;4.402;2023-04-25T06:52:21;10.20;99.90
41876;DHT22;27555;50.808;4.402;2023-04-25T06:54:47;10.10;99.90
41876;DHT22;27555;50.808;4.402;2023-04-25T06:57:13;10.10;99.90
41876;DHT22;27555;50.808;4.402;2023-04-25T06:59:39;9.80;99.90
41876;DHT22;27555;50.808;4.402;2023-04-25T07:02:05;9.80;99.90
41876;DHT22;27555;50.808;4.402;2023-04-25T07:04:31;9.90;99.90
41876;DHT22;27555;50.808;4.402;2023-04-25T07:06:57;9.80;99.90
41876;DHT22;27555;50.808;4.402;2023-04-25T07:09:22;10.20;99.90
41876;DHT22;27555;50.808;4.402;2023-04-25T07:11:48;10.50;99.90
41876;DHT22;27555;50.808;4.402;2023-04-25T07:14:14;10.30;99.90
41876;DHT22;27555;50.808;4.402;2023-04-25T07:16:40;10.10;99.90
41876;DHT22;27555;50.808;4.402;2023-04-25T07:19:07;9.80;99.90
41876;DHT22;27555;50.808;4.402;2023-04-25T07:21:32;9.80;99.90
41876;DHT22;27555;50.808;4.402;2023-04-25T07:23:58;9.80;99.90
41876;DHT22;27555;50.808;4.402;2023-04-25T07:26:23;9.90;99.90
41876;DHT22;27555;50.808;4.402;2023-04-25T07:28:50;9.70;99.90
41876;DHT22;27555;50.808;4.402;2023-04-25T07:31:17;9.70;99.90
41876;DHT22;27555;50.808;4.402;2023-04-25T07:33:44;10.00;99.90
41876;DHT22;27555;50.808;4.402;2023-04-25T07:36:11;10.30;99.90
41876;DHT22;27555;50.808;4.402;2023-04-25T07:38:38;10.50;99.60
41876;DHT22;27555;50.808;4.402;2023-04-25T07:41:04;10.90;98.90
41876;DHT22;27555;50.808;4.402;2023-04-25T07:43:29;10.90;97.80
41876;DHT22;27555;50.808;4.402;2023-04-25T07:45:56;10.90;97.50
41876;DHT22;27555;50.808;4.402;2023-04-25T07:48:22;11.00;97.20
41876;DHT22;27555;50.808;4.402;2023-04-25T07:50:48;11.20;96.80
41876;DHT22;27555;50.808;4.402;2023-04-25T07:53:14;10.80;96.90
41876;DHT22;27555;50.808;4.402;2023-04-25T07:55:40;10.50;97.30
41876;DHT22;27555;50.808;4.402;2023-04-25T07:58:09;10.60;97.20
41876;DHT22;27555;50.808;4.402;2023-04-25T08:00:35;10.80;97.40
41876;DHT22;27555;50.808;4.402;2023-04-25T08:03:01;10.90;97.20
41876;DHT22;27555;50.808;4.402;2023-04-25T08:05:28;11.00;96.90
41876;DHT22;27555;50.808;4.402;2023-04-25T08:07:53;11.10;96.90
41876;DHT22;27555;50.808;4.402;2023-04-25T08:10:19;11.20;96.40
41876;DHT22;27555;50.808;4.402;2023-04-25T08:12:45;11.80;95.70
41876;DHT22;27555;50.808;4.402;2023-04-25T08:15:10;11.90;96.10
41876;DHT22;27555;50.808;4.402;2023-04-25T08:17:36;11.50;95.50
41876;DHT22;27555;50.808;4.402;2023-04-25T08:20:02;11.50;96.10
41876;DHT22;27555;50.808;4.402;2023-04-25T08:22:31;11.40;96.10
41876;DHT22;27555;50.808;4.402;2023-04-25T08:24:56;11.70;95.70
41876;DHT22;27555;50.808;4.402;2023-04-25T08:27:22;11.90;95.80
41876;DHT22;27555;50.808;4.402;2023-04-25T08:29:49;11.80;95.50
41876;DHT22;27555;50.808;4.402;2023-04-25T08:32:15;11.80;95.60
41876;DHT22;27555;50.808;4.402;2023-04-25T08:34:41;12.20;95.00
41876;DHT22;27555;50.808;4.402;2023-04-25T08:37:08;12.30;94.50
41876;DHT22;27555;50.808;4.402;2023-04-25T08:39:35;12.30;94.30
41876;DHT22;27555;50.808;4.402;2023-04-25T08:42:02;11.80;94.50
41876;DHT22;27555;50.808;4.402;2023-04-25T08:44:33;11.40;95.20
41876;DHT22;27555;50.808;4.402;2023-04-25T08:46:59;11.30;95.00
41876;DHT22;27555;50.808;4.402;2023-04-25T08:49:25;11.60;94.60
41876;DHT22;27555;50.808;4.402;2023-04-25T08:51:52;12.60;93.80
41876;DHT22;27555;50.808;4.402;2023-04-25T08:54:20;14.80;92.20
41876;DHT22;27555;50.808;4.402;2023-04-25T08:56:50;16.20;88.70
41876;DHT22;27555;50.808;4.402;2023-04-25T08:59:17;16.70;86.60
41876;DHT22;27555;50.808;4.402;2023-04-25T09:01:42;18.50;85.90
41876;DHT22;27555;50.808;4.402;2023-04-25T09:04:08;19.60;81.90
41876;DHT22;27555;50.808;4.402;2023-04-25T09:06:34;20.20;80.30
41876;DHT22;27555;50.808;4.402;2023-04-25T09:09:05;20.50;76.10
41876;DHT22;27555;50.808;4.402;2023-04-25T09:11:32;19.80;79.00
41876;DHT22;27555;50.808;4.402;2023-04-25T09:14:12;18.40;79.60
41876;DHT22;27555;50.808;4.402;2023-04-25T09:16:59;16.40;83.70
41876;DHT22;27555;50.808;4.402;2023-04-25T09:21:56;14.80;87.10
41876;DHT22;27555;50.808;4.402;2023-04-25T09:24:42;14.20;88.40
41876;DHT22;27555;50.808;4.402;2023-04-25T09:27:13;13.40;90.00
41876;DHT22;27555;50.808;4.402;2023-04-25T09:29:43;13.00;90.40
41876;DHT22;27555;50.808;4.402;2023-04-25T09:32:20;12.90;90.60
41876;DHT22;27555;50.808;4.402;2023-04-25T09:37:26;12.60;90.10
41876;DHT22;27555;50.808;4.402;2023-04-25T09:39:57;12.30;90.40
41876;DHT22;27555;50.808;4.402;2023-04-25T09:42:31;12.00;91.10
41876;DHT22;27555;50.808;4.402;2023-04-25T09:44:58;11.90;91.00
41876;DHT22;27555;50.808;4.402;2023-04-25T09:47:26;12.20;90.90
41876;DHT22;27555;50.808;4.402;2023-04-25T09:49:54;12.70;91.00
41876;DHT22;27555;50.808;4.402;2023-04-25T09:52:22;13.10;90.60
41876;DHT22;27555;50.808;4.402;2023-04-25T09:54:48;13.60;90.20
41876;DHT22;27555;50.808;4.402;2023-04-25T09:57:22;13.80;90.20
41876;DHT22;27555;50.808;4.402;2023-04-25T09:59:52;13.60;90.40
41876;DHT22;27555;50.808;4.402;2023-04-25T10:02:23;13.70;90.50
41876;DHT22;27555;50.808;4.402;2023-04-25T10:04:50;14.80;88.80
41876;DHT22;27555;50.808;4.402;2023-04-25T10:07:20;15.70;88.00
41876;DHT22;27555;50.808;4.402;2023-04-25T10:09:49;16.00;86.70
41876;DHT22;27555;50.808;4.402;2023-04-25T10:12:17;17.00;84.70
41876;DHT22;27555;50.808;4.402;2023-04-25T10:14:44;18.10;83.40
41876;DHT22;27555;50.808;4.402;2023-04-25T10:17:11;19.40;80.50
41876;DHT22;27555;50.808;4.402;2023-04-25T10:19:37;18.00;80.60
41876;DHT22;27555;50.808;4.402;2023-04-25T10:22:30;16.70;83.10
41876;DHT22;27555;50.808;4.402;2023-04-25T10:24:58;15.90;84.70
41876;DHT22;27555;50.808;4.402;2023-04-25T10:27:27;14.90;84.50
41876;DHT22;27555;50.808;4.402;2023-04-25T10:30:03;13.80;86.80
41876;DHT22;27555;50.808;4.402;2023-04-25T10:32:31;14.40;86.80
41876;DHT22;27555;50.808;4.402;2023-04-25T10:35:23;16.50;83.50
41876;DHT22;27555;50.808;4.402;2023-04-25T10:38:15;18.40;79.10
41876;DHT22;27555;50.808;4.402;2023-04-25T10:40:41;19.30;75.10
41876;DHT22;27555;50.808;4.402;2023-04-25T10:43:36;20.20;73.40
41876;DHT22;27555;50.808;4.402;2023-04-25T10:46:23;20.90;73.00
41876;DHT22;27555;50.808;4.402;2023-04-25T10:48:50;21.60;73.00
41876;DHT22;27555;50.808;4.402;2023-04-25T10:56:37;16.90;75.40
41876;DHT22;27555;50.808;4.402;2023-04-25T10:59:10;15.40;78.70
41876;DHT22;27555;50.808;4.402;2023-04-25T11:01:43;15.20;79.50
41876;DHT22;27555;50.808;4.402;2023-04-25T11:04:29;14.80;78.00
41876;DHT22;27555;50.808;4.402;2023-04-25T11:09:29;14.30;80.20
41876;DHT22;27555;50.808;4.402;2023-04-25T11:11:59;14.20;81.20
41876;DHT22;27555;50.808;4.402;2023-04-25T11:14:26;13.50;83.00
41876;DHT22;27555;50.808;4.402;2023-04-25T11:16:59;13.00;84.30
41876;DHT22;27555;50.808;4.402;2023-04-25T11:19:25;13.00;83.90
41876;DHT22;27555;50.808;4.402;2023-04-25T11:21:58;13.00;87.40
41876;DHT22;27555;50.808;4.402;2023-04-25T11:24:29;12.90;89.70
41876;DHT22;27555;50.808;4.402;2023-04-25T11:26:56;12.50;90.80
41876;DHT22;27555;50.808;4.402;2023-04-25T11:29:23;12.40;91.30
41876;DHT22;27555;50.808;4.402;2023-04-25T11:31:48;12.40;91.40
41876;DHT22;27555;50.808;4.402;2023-04-25T11:34:18;12.60;91.20
41876;DHT22;27555;50.808;4.402;2023-04-25T11:36:45;13.30;89.80
41876;DHT22;27555;50.808;4.402;2023-04-25T11:39:11;13.50;87.80
41876;DHT22;27555;50.808;4.402;2023-04-25T11:41:37;13.40;87.80
41876;DHT22;27555;50.808;4.402;2023-04-25T11:44:03;13.50;87.70
41876;DHT22;27555;50.808;4.402;2023-04-25T11:46:30;13.60;88.10
41876;DHT22;27555;50.808;4.402;2023-04-25T11:48:56;13.60;88.60
41876;DHT22;27555;50.808;4.402;2023-04-25T11:51:22;15.10;87.70
41876;DHT22;27555;50.808;4.402;2023-04-25T11:53:48;15.80;84.20
41876;DHT22;27555;50.808;4.402;2023-04-25T11:56:14;15.20;85.00
41876;DHT22;27555;50.808;4.402;2023-04-25T11:59:00;14.80;84.80
41876;DHT22;27555;50.808;4.402;2023-04-25T12:01:37;14.90;82.90
41876;DHT22;27555;50.808;4.402;2023-04-25T12:06:41;16.00;80.70
41876;DHT22;27555;50.808;4.402;2023-04-25T12:09:10;16.60;79.10
41876;DHT22;27555;50.808;4.402;2023-04-25T12:11:45;16.90;77.40
41876;DHT22;27555;50.808;4.402;2023-04-25T12:14:12;17.70;76.00
41876;DHT22;27555;50.808;4.402;2023-04-25T12:16:46;17.70;76.10
41876;DHT22;27555;50.808;4.402;2023-04-25T12:19:15;16.40;76.60
41876;DHT22;27555;50.808;4.402;2023-04-25T12:21:42;15.90;77.30
41876;DHT22;27555;50.808;4.402;2023-04-25T12:24:13;15.60;76.70
41876;DHT22;27555;50.808;4.402;2023-04-25T12:26:49;15.40;79.30
41876;DHT22;27555;50.808;4.402;2023-04-25T12:29:20;15.00;80.60
41876;DHT22;27555;50.808;4.402;2023-04-25T12:31:46;15.30;81.00
41876;DHT22;27555;50.808;4.402;2023-04-25T12:34:12;14.70;81.40
41876;DHT22;27555;50.808;4.402;2023-04-25T12:36:37;14.30;81.60
41876;DHT22;27555;50.808;4.402;2023-04-25T12:39:04;13.80;80.70
41876;DHT22;27555;50.808;4.402;2023-04-25T12:41:30;13.50;81.70
41876;DHT22;27555;50.808;4.402;2023-04-25T12:43:56;13.00;83.40
41876;DHT22;27555;50.808;4.402;2023-04-25T12:46:22;12.60;85.40
41876;DHT22;27555;50.808;4.402;2023-04-25T12:48:48;12.40;85.70
41876;DHT22;27555;50.808;4.402;2023-04-25T12:51:14;12.50;85.80
41876;DHT22;27555;50.808;4.402;2023-04-25T12:53:40;12.80;82.70
41876;DHT22;27555;50.808;4.402;2023-04-25T12:56:09;12.80;81.60
41876;DHT22;27555;50.808;4.402;2023-04-25T12:58:35;13.00;81.30
41876;DHT22;27555;50.808;4.402;2023-04-25T13:01:01;13.30;81.00
41876;DHT22;27555;50.808;4.402;2023-04-25T13:03:26;13.90;79.40
41876;DHT22;27555;50.808;4.402;2023-04-25T13:05:52;13.90;79.60
41876;DHT22;27555;50.808;4.402;2023-04-25T13:08:21;14.30;79.40
41876;DHT22;27555;50.808;4.402;2023-04-25T13:10:47;14.60;80.00
41876;DHT22;27555;50.808;4.402;2023-04-25T13:13:13;14.10;80.30
41876;DHT22;27555;50.808;4.402;2023-04-25T13:15:39;13.70;82.00
41876;DHT22;27555;50.808;4.402;2023-04-25T13:18:04;13.30;84.30
41876;DHT22;27555;50.808;4.402;2023-04-25T13:20:33;13.10;85.90
41876;DHT22;27555;50.808;4.402;2023-04-25T13:22:59;13.00;86.80
41876;DHT22;27555;50.808;4.402;2023-04-25T13:25:25;13.20;86.30
41876;DHT22;27555;50.808;4.402;2023-04-25T13:27:50;13.40;85.00
41876;DHT22;27555;50.808;4.402;2023-04-25T13:30:16;13.10;84.40
41876;DHT22;27555;50.808;4.402;2023-04-25T13:32:42;13.10;84.10
41876;DHT22;27555;50.808;4.402;2023-04-25T13:35:12;13.00;83.90
41876;DHT22;27555;50.808;4.402;2023-04-25T13:37:39;12.90;84.90
41876;DHT22;27555;50.808;4.402;2023-04-25T13:40:07;12.90;84.50
41876;DHT22;27555;50.808;4.402;2023-04-25T13:42:35;12.90;85.30
41876;DHT22;27555;50.808;4.402;2023-04-25T13:45:01;12.90;85.30
41876;DHT22;27555;50.808;4.402;2023-04-25T13:47:27;13.20;83.90
41876;DHT22;27555;50.808;4.402;2023-04-25T13:49:53;13.20;82.30
41876;DHT22;27555;50.808;4.402;2023-04-25T13:52:20;13.20;82.50
41876;DHT22;27555;50.808;4.402;2023-04-25T13:54:46;13.20;82.30
41876;DHT22;27555;50.808;4.402;2023-04-25T13:57:11;13.70;81.10
41876;DHT22;27555;50.808;4.402;2023-04-25T13:59:38;13.60;81.20
41876;DHT22;27555;50.808;4.402;2023-04-25T14:02:04;13.60;79.40
41876;DHT22;27555;50.808;4.402;2023-04-25T14:04:29;13.40;80.10
41876;DHT22;27555;50.808;4.402;2023-04-25T14:06:55;13.00;81.50
41876;DHT22;27555;50.808;4.402;2023-04-25T14:09:21;12.80;85.00
41876;DHT22;27555;50.808;4.402;2023-04-25T14:11:54;12.60;86.00
41876;DHT22;27555;50.808;4.402;2023-04-25T14:14:21;12.30;86.40
41876;DHT22;27555;50.808;4.402;2023-04-25T14:16:48;12.20;87.30
41876;DHT22;27555;50.808;4.402;2023-04-25T14:19:17;12.30;87.80
41876;DHT22;27555;50.808;4.402;2023-04-25T14:21:43;12.20;87.50
41876;DHT22;27555;50.808;4.402;2023-04-25T14:24:09;12.20;87.30
41876;DHT22;27555;50.808;4.402;2023-04-25T14:26:36;12.20;86.80
41876;DHT22;27555;50.808;4.402;2023-04-25T14:29:05;12.30;86.30
41876;DHT22;27555;50.808;4.402;2023-04-25T14:31:31;12.50;85.80
41876;DHT22;27555;50.808;4.402;2023-04-25T14:33:57;12.60;83.50
41876;DHT22;27555;50.808;4.402;2023-04-25T14:36:23;12.80;84.40
41876;DHT22;27555;50.808;4.402;2023-04-25T14:38:48;12.90;83.60
41876;DHT22;27555;50.808;4.402;2023-04-25T14:41:14;13.10;82.30
41876;DHT22;27555;50.808;4.402;2023-04-25T14:43:39;13.10;81.80
41876;DHT22;27555;50.808;4.402;2023-04-25T14:46:06;13.00;81.70
41876;DHT22;27555;50.808;4.402;2023-04-25T14:48:32;12.60;80.30
41876;DHT22;27555;50.808;4.402;2023-04-25T14:50:59;12.50;79.10
41876;DHT22;27555;50.808;4.402;2023-04-25T14:53:25;12.50;80.70
41876;DHT22;27555;50.808;4.402;2023-04-25T14:55:51;12.70;80.90
41876;DHT22;27555;50.808;4.402;2023-04-25T14:58:16;12.70;79.20
41876;DHT22;27555;50.808;4.402;2023-04-25T15:00:42;12.80;79.90
41876;DHT22;27555;50.808;4.402;2023-04-25T15:03:09;13.00;80.30
41876;DHT22;27555;50.808;4.402;2023-04-25T15:05:37;13.60;79.70
41876;DHT22;27555;50.808;4.402;2023-04-25T15:08:03;13.50;81.60
41876;DHT22;27555;50.808;4.402;2023-04-25T15:10:28;13.30;82.30
41876;DHT22;27555;50.808;4.402;2023-04-25T15:12:54;13.20;82.50
41876;DHT22;27555;50.808;4.402;2023-04-25T15:15:20;13.50;81.60
41876;DHT22;27555;50.808;4.402;2023-04-25T15:17:46;13.80;80.60
41876;DHT22;27555;50.808;4.402;2023-04-25T15:20:12;13.80;80.50
41876;DHT22;27555;50.808;4.402;2023-04-25T15:22:39;13.60;80.20
41876;DHT22;27555;50.808;4.402;2023-04-25T15:25:06;13.20;81.00
41876;DHT22;27555;50.808;4.402;2023-04-25T15:27:33;13.50;80.70
41876;DHT22;27555;50.808;4.402;2023-04-25T15:30:04;13.70;81.20
41876;DHT22;27555;50.808;4.402;2023-04-25T15:32:31;14.30;79.90
41876;DHT22;27555;50.808;4.402;2023-04-25T15:34:56;13.90;80.40
41876;DHT22;27555;50.808;4.402;2023-04-25T15:37:22;13.50;82.00
41876;DHT22;27555;50.808;4.402;2023-04-25T15:39:47;13.30;82.70
41876;DHT22;27555;50.808;4.402;2023-04-25T15:42:13;13.60;81.80
41876;DHT22;27555;50.808;4.402;2023-04-25T15:44:39;13.50;81.60
41876;DHT22;27555;50.808;4.402;2023-04-25T15:47:04;13.20;80.90
41876;DHT22;27555;50.808;4.402;2023-04-25T15:49:30;12.90;81.80
41876;DHT22;27555;50.808;4.402;2023-04-25T15:51:55;12.80;81.60